sensor_id;sensor_type;location;lat;lon;timestamp;temperature;humidity
8780;DHT22;62328;51.19929245;4.42130175;2022-10-30T00:00:49;17.20;99.90
8780;DHT22;62328;51.19929245;4.42130175;2022-10-30T00:03:16;17.30;99.90
8780;DHT22;62328;51.19929245;4.42130175;2022-10-30T00:05:44;17.30;99.90
8780;DHT22;62328;51.19929245;4.42130175;2022-10-30T00:08:13;17.30;99.90
8780;DHT22;62328;51.19929245;4.42130175;2022-10-30T00:10:42;17.80;99.90
8780;DHT22;62328;51.19929245;4.42130175;2022-10-30T00:13:09;17.20;99.90
8780;DHT22;62328;51.19929245;4.42130175;2022-10-30T00:15:36;17.20;99.90
8780;DHT22;62328;51.19929245;4.42130175;2022-10-30T00:18:04;17.20;99.90
8780;DHT22;62328;51.19929245;4.42130175;2022-10-30T00:20:30;17.10;99.90
8780;DHT22;62328;51.19929245;4.42130175;2022-10-30T00:22:57;17.10;99.90
8780;DHT22;62328;51.19929245;4.42130175;2022-10-30T00:25:24;17.20;99.90
8780;DHT22;62328;51.19929245;4.42130175;2022-10-30T00:27:52;17.20;99.90
8780;DHT22;62328;51.19929245;4.42130175;2022-10-30T00:30:19;17.10;99.90
8780;DHT22;62328;51.19929245;4.42130175;2022-10-30T00:32:46;17.10;99.90
8780;DHT22;62328;51.19929245;4.42130175;2022-10-30T00:35:13;17.00;99.90
8780;DHT22;62328;51.19929245;4.42130175;2022-10-30T00:37:40;17.00;99.90
8780;DHT22;62328;51.19929245;4.42130175;2022-10-30T00:40:08;17.00;99.90
8780;DHT22;62328;51.19929245;4.42130175;2022-10-30T00:42:35;16.90;99.90
8780;DHT22;62328;51.19929245;4.42130175;2022-10-30T00:45:04;16.90;99.90
8780;DHT22;62328;51.19929245;4.42130175;2022-10-30T00:47:33;16.90;99.90
8780;DHT22;62328;51.19929245;4.42130175;2022-10-30T00:50:04;16.80;99.90
8780;DHT22;62328;51.19929245;4.42130175;2022-10-30T00:52:34;16.80;99.90
8780;DHT22;62328;51.19929245;4.42130175;2022-10-30T00:55:05;16.80;99.90
8780;DHT22;62328;51.19929245;4.42130175;2022-10-30T00:57:33;16.80;99.90
8780;DHT22;62328;51.19929245;4.42130175;2022-10-30T01:00:00;16.80;99.90
8780;DHT22;62328;51.19929245;4.42130175;2022-10-30T01:02:29;16.70;99.90
8780;DHT22;62328;51.19929245;4.42130175;2022-10-30T01:04:56;16.80;99.90
8780;DHT22;62328;51.19929245;4.42130175;2022-10-30T01:07:23;16.70;99.90
8780;DHT22;62328;51.19929245;4.42130175;2022-10-30T01:09:50;16.70;99.90
8780;DHT22;62328;51.19929245;4.42130175;2022-10-30T01:12:16;16.70;99.90
8780;DHT22;62328;51.19929245;4.42130175;2022-10-30T01:14:46;16.70;99.90
8780;DHT22;62328;51.19929245;4.42130175;2022-10-30T01:17:35;16.70;99.90
8780;DHT22;62328;51.19929245;4.42130175;2022-10-30T01:20:24;16.70;99.90
8780;DHT22;62328;51.19929245;4.42130175;2022-10-30T01:23:00;16.80;99.90
8780;DHT22;62328;51.19929245;4.42130175;2022-10-30T01:25:40;16.90;99.90
8780;DHT22;62328;51.19929245;4.42130175;2022-10-30T01:28:24;17.00;99.90
8780;DHT22;62328;51.19929245;4.42130175;2022-10-30T01:31:04;16.90;99.90
8780;DHT22;62328;51.19929245;4.42130175;2022-10-30T01:33:49;16.90;99.90
8780;DHT22;62328;51.19929245;4.42130175;2022-10-30T01:36:24;17.00;99.90
8780;DHT22;62328;51.19929245;4.42130175;2022-10-30T01:38:54;17.00;99.90
8780;DHT22;62328;51.19929245;4.42130175;2022-10-30T01:41:22;17.00;99.90
8780;DHT22;62328;51.19929245;4.42130175;2022-10-30T01:43:52;17.00;99.90
8780;DHT22;62328;51.19929245;4.42130175;2022-10-30T01:46:35;17.00;99.90
8780;DHT22;62328;51.19929245;4.42130175;2022-10-30T01:49:36;17.00;99.90
8780;DHT22;62328;51.19929245;4.42130175;2022-10-30T01:52:13;17.00;99.90
8780;DHT22;62328;51.19929245;4.42130175;2022-10-30T01:54:46;17.00;99.90
8780;DHT22;62328;51.19929245;4.42130175;2022-10-30T01:57:22;17.10;99.90
8780;DHT22;62328;51.19929245;4.42130175;2022-10-30T01:59:54;17.10;99.90
8780;DHT22;62328;51.19929245;4.42130175;2022-10-30T02:02:24;17.00;99.90
8780;DHT22;62328;51.19929245;4.42130175;2022-10-30T02:04:52;16.90;99.90
8780;DHT22;62328;51.19929245;4.42130175;2022-10-30T02:07:19;16.90;99.90
8780;DHT22;62328;51.19929245;4.42130175;2022-10-30T02:09:46;16.90;99.90
8780;DHT22;62328;51.19929245;4.42130175;2022-10-30T02:12:14;17.00;99.90
8780;DHT22;62328;51.19929245;4.42130175;2022-10-30T02:14:43;16.90;99.90
8780;DHT22;62328;51.19929245;4.42130175;2022-10-30T02:17:11;16.90;99.90
8780;DHT22;62328;51.19929245;4.42130175;2022-10-30T02:19:38;16.90;99.90
8780;DHT22;62328;51.19929245;4.42130175;2022-10-30T02:22:06;16.80;99.90
8780;DHT22;62328;51.19929245;4.42130175;2022-10-30T02:24:33;16.80;99.90
8780;DHT22;62328;51.19929245;4.42130175;2022-10-30T02:27:00;16.90;99.90
8780;DHT22;62328;51.19929245;4.42130175;2022-10-30T02:29:28;16.80;99.90
8780;DHT22;62328;51.19929245;4.42130175;2022-10-30T02:31:55;16.90;99.90
8780;DHT22;62328;51.19929245;4.42130175;2022-10-30T02:34:22;16.90;99.90
8780;DHT22;62328;51.19929245;4.42130175;2022-10-30T02:36:48;16.80;99.90
8780;DHT22;62328;51.19929245;4.42130175;2022-10-30T02:39:16;16.80;99.90
8780;DHT22;62328;51.19929245;4.42130175;2022-10-30T02:41:44;16.70;99.90
8780;DHT22;62328;51.19929245;4.42130175;2022-10-30T02:44:11;16.70;99.90
8780;DHT22;62328;51.19929245;4.42130175;2022-10-30T02:46:38;16.60;99.90
8780;DHT22;62328;51.19929245;4.42130175;2022-10-30T02:49:05;16.60;99.90
8780;DHT22;62328;51.19929245;4.42130175;2022-10-30T02:51:32;16.70;99.90
8780;DHT22;62328;51.19929245;4.42130175;2022-10-30T02:53:59;16.70;99.90
8780;DHT22;62328;51.19929245;4.42130175;2022-10-30T02:56:27;16.70;99.90
8780;DHT22;62328;51.19929245;4.42130175;2022-10-30T02:58:54;16.60;99.90
8780;DHT22;62328;51.19929245;4.42130175;2022-10-30T03:01:21;16.60;99.90
8780;DHT22;62328;51.19929245;4.42130175;2022-10-30T03:03:48;16.60;99.90
8780;DHT22;62328;51.19929245;4.42130175;2022-10-30T03:06:16;16.50;99.90
8780;DHT22;62328;51.19929245;4.42130175;2022-10-30T03:08:43;16.50;99.90
8780;DHT22;62328;51.19929245;4.42130175;2022-10-30T03:11:11;16.50;99.90
8780;DHT22;62328;51.19929245;4.42130175;2022-10-30T03:13:41;16.50;99.90
8780;DHT22;62328;51.19929245;4.42130175;2022-10-30T03:16:11;16.50;99.90
8780;DHT22;62328;51.19929245;4.42130175;2022-10-30T03:18:38;16.40;99.90
8780;DHT22;62328;51.19929245;4.42130175;2022-10-30T03:21:08;16.40;99.90
8780;DHT22;62328;51.19929245;4.42130175;2022-10-30T03:23:35;16.40;99.90
8780;DHT22;62328;51.19929245;4.42130175;2022-10-30T03:26:02;16.40;99.90
8780;DHT22;62328;51.19929245;4.42130175;2022-10-30T03:28:31;16.30;99.90
8780;DHT22;62328;51.19929245;4.42130175;2022-10-30T03:31:01;16.30;99.90
8780;DHT22;62328;51.19929245;4.42130175;2022-10-30T03:33:28;16.30;99.90
8780;DHT22;62328;51.19929245;4.42130175;2022-10-30T03:35:55;16.30;99.90
8780;DHT22;62328;51.19929245;4.42130175;2022-10-30T03:38:22;16.20;99.90
8780;DHT22;62328;51.19929245;4.42130175;2022-10-30T03:40:49;16.30;99.90
8780;DHT22;62328;51.19929245;4.42130175;2022-10-30T03:43:16;16.30;99.90
8780;DHT22;62328;51.19929245;4.42130175;2022-10-30T03:45:45;16.30;99.90
8780;DHT22;62328;51.19929245;4.42130175;2022-10-30T03:48:15;16.20;99.90
8780;DHT22;62328;51.19929245;4.42130175;2022-10-30T03:50:43;16.30;99.90
8780;DHT22;62328;51.19929245;4.42130175;2022-10-30T03:53:10;16.20;99.90
8780;DHT22;62328;51.19929245;4.42130175;2022-10-30T03:55:37;16.30;99.90
8780;DHT22;62328;51.19929245;4.42130175;2022-10-30T03:58:04;16.20;99.90
8780;DHT22;62328;51.19929245;4.42130175;2022-10-30T04:00:32;16.20;99.90
8780;DHT22;62328;51.19929245;4.42130175;2022-10-30T04:02:59;16.20;99.90
8780;DHT22;62328;51.19929245;4.42130175;2022-10-30T04:05:28;16.20;99.90
8780;DHT22;62328;51.19929245;4.42130175;2022-10-30T04:07:56;16.10;99.90
8780;DHT22;62328;51.19929245;4.42130175;2022-10-30T04:10:23;16.20;99.90
8780;DHT22;62328;51.19929245;4.42130175;2022-10-30T04:12:50;16.00;99.90
8780;DHT22;62328;51.19929245;4.42130175;2022-10-30T04:15:19;16.10;99.90
8780;DHT22;62328;51.19929245;4.42130175;2022-10-30T04:17:49;16.10;99.90
8780;DHT22;62328;51.19929245;4.42130175;2022-10-30T04:20:16;16.00;99.90
8780;DHT22;62328;51.19929245;4.42130175;2022-10-30T04:22:44;16.00;99.90
8780;DHT22;62328;51.19929245;4.42130175;2022-10-30T04:25:13;15.90;99.90
8780;DHT22;62328;51.19929245;4.42130175;2022-10-30T04:27:40;15.90;99.90
8780;DHT22;62328;51.19929245;4.42130175;2022-10-30T04:30:09;15.80;99.90
8780;DHT22;62328;51.19929245;4.42130175;2022-10-30T04:32:36;15.80;99.90
8780;DHT22;62328;51.19929245;4.42130175;2022-10-30T04:35:03;15.80;99.90
8780;DHT22;62328;51.19929245;4.42130175;2022-10-30T04:37:30;15.80;99.90
8780;DHT22;62328;51.19929245;4.42130175;2022-10-30T04:39:58;15.80;99.90
8780;DHT22;62328;51.19929245;4.42130175;2022-10-30T04:42:25;15.70;99.90
8780;DHT22;62328;51.19929245;4.42130175;2022-10-30T04:44:52;15.70;99.90
8780;DHT22;62328;51.19929245;4.42130175;2022-10-30T04:47:18;15.70;99.90
8780;DHT22;62328;51.19929245;4.42130175;2022-10-30T04:49:45;15.60;99.90
8780;DHT22;62328;51.19929245;4.42130175;2022-10-30T04:52:12;15.60;99.90
8780;DHT22;62328;51.19929245;4.42130175;2022-10-30T04:54:39;15.50;99.90
8780;DHT22;62328;51.19929245;4.42130175;2022-10-30T04:57:07;15.40;99.90
8780;DHT22;62328;51.19929245;4.42130175;2022-10-30T04:59:35;15.40;99.90
8780;DHT22;62328;51.19929245;4.42130175;2022-10-30T05:02:01;15.40;99.90
8780;DHT22;62328;51.19929245;4.42130175;2022-10-30T05:04:28;15.40;99.90
8780;DHT22;62328;51.19929245;4.42130175;2022-10-30T05:06:55;15.40;99.90
8780;DHT22;62328;51.19929245;4.42130175;2022-10-30T05:09:22;15.30;99.90
8780;DHT22;62328;51.19929245;4.42130175;2022-10-30T05:11:49;15.40;99.90
8780;DHT22;62328;51.19929245;4.42130175;2022-10-30T05:14:17;15.40;99.90
8780;DHT22;62328;51.19929245;4.42130175;2022-10-30T05:16:43;15.30;99.90
8780;DHT22;62328;51.19929245;4.42130175;2022-10-30T05:19:10;15.40;99.90
8780;DHT22;62328;51.19929245;4.42130175;2022-10-30T05:21:37;15.40;99.90
8780;DHT22;62328;51.19929245;4.42130175;2022-10-30T05:24:04;15.30;99.90
8780;DHT22;62328;51.19929245;4.42130175;2022-10-30T05:26:31;15.30;99.90
8780;DHT22;62328;51.19929245;4.42130175;2022-10-30T05:28:58;15.20;99.90
8780;DHT22;62328;51.19929245;4.42130175;2022-10-30T05:31:26;15.20;99.90
8780;DHT22;62328;51.19929245;4.42130175;2022-10-30T05:33:53;15.20;99.90
8780;DHT22;62328;51.19929245;4.42130175;2022-10-30T05:36:21;15.20;99.90
8780;DHT22;62328;51.19929245;4.42130175;2022-10-30T05:38:48;15.20;99.90
8780;DHT22;62328;51.19929245;4.42130175;2022-10-30T05:41:15;15.20;99.90
8780;DHT22;62328;51.19929245;4.42130175;2022-10-30T05:43:42;15.20;99.90
8780;DHT22;62328;51.19929245;4.42130175;2022-10-30T05:46:09;15.20;99.90
8780;DHT22;62328;51.19929245;4.42130175;2022-10-30T05:48:37;15.30;99.90
8780;DHT22;62328;51.19929245;4.42130175;2022-10-30T05:51:04;15.20;99.90
8780;DHT22;62328;51.19929245;4.42130175;2022-10-30T05:53:33;15.30;99.90
8780;DHT22;62328;51.19929245;4.42130175;2022-10-30T05:55:59;15.30;99.90
8780;DHT22;62328;51.19929245;4.42130175;2022-10-30T05:58:26;15.20;99.90
8780;DHT22;62328;51.19929245;4.42130175;2022-10-30T06:00:53;15.20;99.90
8780;DHT22;62328;51.19929245;4.42130175;2022-10-30T06:03:20;15.10;99.90
8780;DHT22;62328;51.19929245;4.42130175;2022-10-30T06:05:48;15.10;99.90
8780;DHT22;62328;51.19929245;4.42130175;2022-10-30T06:08:15;15.10;99.90
8780;DHT22;62328;51.19929245;4.42130175;2022-10-30T06:10:42;15.10;99.90
8780;DHT22;62328;51.19929245;4.42130175;2022-10-30T06:13:09;15.00;99.90
8780;DHT22;62328;51.19929245;4.42130175;2022-10-30T06:15:36;15.00;99.90
8780;DHT22;62328;51.19929245;4.42130175;2022-10-30T06:18:03;15.00;99.90
8780;DHT22;62328;51.19929245;4.42130175;2022-10-30T06:20:30;15.00;99.90
8780;DHT22;62328;51.19929245;4.42130175;2022-10-30T06:23:00;14.90;99.90
8780;DHT22;62328;51.19929245;4.42130175;2022-10-30T06:25:28;14.90;99.90
8780;DHT22;62328;51.19929245;4.42130175;2022-10-30T06:27:55;14.90;99.90
8780;DHT22;62328;51.19929245;4.42130175;2022-10-30T06:30:23;14.90;99.90
8780;DHT22;62328;51.19929245;4.42130175;2022-10-30T06:32:55;15.00;99.90
8780;DHT22;62328;51.19929245;4.42130175;2022-10-30T06:35:22;15.00;99.90
8780;DHT22;62328;51.19929245;4.42130175;2022-10-30T06:37:51;15.00;99.90
8780;DHT22;62328;51.19929245;4.42130175;2022-10-30T06:40:21;15.00;99.90
8780;DHT22;62328;51.19929245;4.42130175;2022-10-30T06:42:50;15.00;99.90
8780;DHT22;62328;51.19929245;4.42130175;2022-10-30T06:45:19;15.00;99.90
8780;DHT22;62328;51.19929245;4.42130175;2022-10-30T06:47:46;15.00;99.90
8780;DHT22;62328;51.19929245;4.42130175;2022-10-30T06:50:15;14.90;99.90
8780;DHT22;62328;51.19929245;4.42130175;2022-10-30T06:52:42;14.90;99.90
8780;DHT22;62328;51.19929245;4.42130175;2022-10-30T06:55:10;14.90;99.90
8780;DHT22;62328;51.19929245;4.42130175;2022-10-30T06:57:38;14.90;99.90
8780;DHT22;62328;51.19929245;4.42130175;2022-10-30T07:00:06;14.90;99.90
8780;DHT22;62328;51.19929245;4.42130175;2022-10-30T07:02:34;14.90;99.90
8780;DHT22;62328;51.19929245;4.42130175;2022-10-30T07:05:01;15.00;99.90
8780;DHT22;62328;51.19929245;4.42130175;2022-10-30T07:07:28;14.90;99.90
8780;DHT22;62328;51.19929245;4.42130175;2022-10-30T07:09:55;14.90;99.90
8780;DHT22;62328;51.19929245;4.42130175;2022-10-30T07:12:22;15.40;99.90
8780;DHT22;62328;51.19929245;4.42130175;2022-10-30T07:14:50;15.00;99.90
8780;DHT22;62328;51.19929245;4.42130175;2022-10-30T07:17:17;15.00;99.90
8780;DHT22;62328;51.19929245;4.42130175;2022-10-30T07:19:44;15.10;99.90
8780;DHT22;62328;51.19929245;4.42130175;2022-10-30T07:22:10;15.00;99.90
8780;DHT22;62328;51.19929245;4.42130175;2022-10-30T07:24:37;15.10;99.90
8780;DHT22;62328;51.19929245;4.42130175;2022-10-30T07:27:04;15.00;99.90
8780;DHT22;62328;51.19929245;4.42130175;2022-10-30T07:29:31;15.10;99.90
8780;DHT22;62328;51.19929245;4.42130175;2022-10-30T07:31:59;15.20;99.90
8780;DHT22;62328;51.19929245;4.42130175;2022-10-30T07:34:26;15.20;99.90
8780;DHT22;62328;51.19929245;4.42130175;2022-10-30T07:36:52;15.30;99.90
8780;DHT22;62328;51.19929245;4.42130175;2022-10-30T07:39:19;15.30;99.90
8780;DHT22;62328;51.19929245;4.42130175;2022-10-30T07:41:47;15.30;99.90
8780;DHT22;62328;51.19929245;4.42130175;2022-10-30T07:44:14;15.30;99.90
8780;DHT22;62328;51.19929245;4.42130175;2022-10-30T07:46:41;15.40;99.90
8780;DHT22;62328;51.19929245;4.42130175;2022-10-30T07:49:09;15.40;99.90
8780;DHT22;62328;51.19929245;4.42130175;2022-10-30T07:51:36;15.40;99.90
8780;DHT22;62328;51.19929245;4.42130175;2022-10-30T07:54:03;15.50;99.90
8780;DHT22;62328;51.19929245;4.42130175;2022-10-30T07:56:30;15.40;99.90
8780;DHT22;62328;51.19929245;4.42130175;2022-10-30T07:58:57;15.50;99.90
8780;DHT22;62328;51.19929245;4.42130175;2022-10-30T08:01:24;15.50;99.90
8780;DHT22;62328;51.19929245;4.42130175;2022-10-30T08:03:51;15.50;99.90
8780;DHT22;62328;51.19929245;4.42130175;2022-10-30T08:06:19;15.60;99.90
8780;DHT22;62328;51.19929245;4.42130175;2022-10-30T08:08:46;15.60;99.90
8780;DHT22;62328;51.19929245;4.42130175;2022-10-30T08:11:12;15.70;99.90
8780;DHT22;62328;51.19929245;4.42130175;2022-10-30T08:13:39;15.70;99.90
8780;DHT22;62328;51.19929245;4.42130175;2022-10-30T08:16:07;15.80;99.90
8780;DHT22;62328;51.19929245;4.42130175;2022-10-30T08:18:33;15.80;99.90
8780;DHT22;62328;51.19929245;4.42130175;2022-10-30T08:21:01;15.80;99.90
8780;DHT22;62328;51.19929245;4.42130175;2022-10-30T08:23:29;15.90;99.90
8780;DHT22;62328;51.19929245;4.42130175;2022-10-30T08:25:56;16.00;99.90
8780;DHT22;62328;51.19929245;4.42130175;2022-10-30T08:28:25;16.40;99.90
8780;DHT22;62328;51.19929245;4.42130175;2022-10-30T08:30:52;16.00;99.90
8780;DHT22;62328;51.19929245;4.42130175;2022-10-30T08:33:19;16.10;99.90
8780;DHT22;62328;51.19929245;4.42130175;2022-10-30T08:35:47;16.20;99.90
8780;DHT22;62328;51.19929245;4.42130175;2022-10-30T08:38:15;16.10;99.90
8780;DHT22;62328;51.19929245;4.42130175;2022-10-30T08:40:44;16.20;99.90
8780;DHT22;62328;51.19929245;4.42130175;2022-10-30T08:43:11;16.30;99.90
8780;DHT22;62328;51.19929245;4.42130175;2022-10-30T08:45:37;16.40;99.90
8780;DHT22;62328;51.19929245;4.42130175;2022-10-30T08:48:05;16.40;99.90
8780;DHT22;62328;51.19929245;4.42130175;2022-10-30T08:50:33;16.40;99.90
8780;DHT22;62328;51.19929245;4.42130175;2022-10-30T08:53:01;16.40;99.90
8780;DHT22;62328;51.19929245;4.42130175;2022-10-30T08:55:28;16.50;99.90
8780;DHT22;62328;51.19929245;4.42130175;2022-10-30T08:57:57;16.50;99.90
8780;DHT22;62328;51.19929245;4.42130175;2022-10-30T09:00:24;16.50;99.90
8780;DHT22;62328;51.19929245;4.42130175;2022-10-30T09:02:51;16.50;99.90
8780;DHT22;62328;51.19929245;4.42130175;2022-10-30T09:05:18;16.60;99.90
8780;DHT22;62328;51.19929245;4.42130175;2022-10-30T09:07:45;16.70;99.90
8780;DHT22;62328;51.19929245;4.42130175;2022-10-30T09:10:13;16.90;99.90
8780;DHT22;62328;51.19929245;4.42130175;2022-10-30T09:12:40;17.00;99.90
8780;DHT22;62328;51.19929245;4.42130175;2022-10-30T09:15:11;17.00;99.90
8780;DHT22;62328;51.19929245;4.42130175;2022-10-30T09:17:38;17.00;99.90
8780;DHT22;62328;51.19929245;4.42130175;2022-10-30T09:20:05;17.10;99.90
8780;DHT22;62328;51.19929245;4.42130175;2022-10-30T09:22:32;17.20;99.90
8780;DHT22;62328;51.19929245;4.42130175;2022-10-30T09:24:59;17.30;99.90
8780;DHT22;62328;51.19929245;4.42130175;2022-10-30T09:27:26;17.70;99.90
8780;DHT22;62328;51.19929245;4.42130175;2022-10-30T09:30:00;17.50;99.90
8780;DHT22;62328;51.19929245;4.42130175;2022-10-30T09:32:29;17.70;99.90
8780;DHT22;62328;51.19929245;4.42130175;2022-10-30T09:34:57;17.60;99.90
8780;DHT22;62328;51.19929245;4.42130175;2022-10-30T09:37:24;17.60;99.90
8780;DHT22;62328;51.19929245;4.42130175;2022-10-30T09:39:51;17.60;99.90
8780;DHT22;62328;51.19929245;4.42130175;2022-10-30T09:42:39;17.60;99.90
8780;DHT22;62328;51.19929245;4.42130175;2022-10-30T09:45:52;17.70;99.90
8780;DHT22;62328;51.19929245;4.42130175;2022-10-30T09:48:40;17.70;99.90
8780;DHT22;62328;51.19929245;4.42130175;2022-10-30T09:54:13;17.90;99.90
8780;DHT22;62328;51.19929245;4.42130175;2022-10-30T09:56:45;17.90;99.90
8780;DHT22;62328;51.19929245;4.42130175;2022-10-30T09:59:24;18.00;99.90
8780;DHT22;62328;51.19929245;4.42130175;2022-10-30T10:02:00;18.10;99.90
8780;DHT22;62328;51.19929245;4.42130175;2022-10-30T10:04:38;18.10;99.90
8780;DHT22;62328;51.19929245;4.42130175;2022-10-30T10:07:09;18.10;99.90
8780;DHT22;62328;51.19929245;4.42130175;2022-10-30T10:09:39;18.10;99.90
8780;DHT22;62328;51.19929245;4.42130175;2022-10-30T10:12:10;18.20;99.90
8780;DHT22;62328;51.19929245;4.42130175;2022-10-30T10:14:41;18.20;99.90
8780;DHT22;62328;51.19929245;4.42130175;2022-10-30T10:17:12;18.20;99.90
8780;DHT22;62328;51.19929245;4.42130175;2022-10-30T10:19:47;18.20;99.90
8780;DHT22;62328;51.19929245;4.42130175;2022-10-30T10:22:19;18.20;99.90
8780;DHT22;62328;51.19929245;4.42130175;2022-10-30T10:24:46;18.20;99.90
8780;DHT22;62328;51.19929245;4.42130175;2022-10-30T10:27:36;18.20;99.90
8780;DHT22;62328;51.19929245;4.42130175;2022-10-30T10:30:13;18.30;99.90
8780;DHT22;62328;51.19929245;4.42130175;2022-10-30T10:32:58;18.30;99.90
8780;DHT22;62328;51.19929245;4.42130175;2022-10-30T10:35:48;18.40;99.90
8780;DHT22;62328;51.19929245;4.42130175;2022-10-30T10:38:26;18.50;99.90
8780;DHT22;62328;51.19929245;4.42130175;2022-10-30T10:40:59;18.60;99.90
8780;DHT22;62328;51.19929245;4.42130175;2022-10-30T10:43:40;18.60;99.90
8780;DHT22;62328;51.19929245;4.42130175;2022-10-30T10:46:34;18.50;99.90
8780;DHT22;62328;51.19929245;4.42130175;2022-10-30T10:49:12;18.60;99.90
8780;DHT22;62328;51.19929245;4.42130175;2022-10-30T10:51:46;18.60;99.90
8780;DHT22;62328;51.19929245;4.42130175;2022-10-30T10:54:18;18.70;99.90
8780;DHT22;62328;51.19929245;4.42130175;2022-10-30T10:56:48;18.70;99.90
8780;DHT22;62328;51.19929245;4.42130175;2022-10-30T10:59:18;18.70;99.90
8780;DHT22;62328;51.19929245;4.42130175;2022-10-30T11:01:50;18.70;99.90
8780;DHT22;62328;51.19929245;4.42130175;2022-10-30T11:04:29;18.70;99.90
8780;DHT22;62328;51.19929245;4.42130175;2022-10-30T11:07:02;18.70;99.90
8780;DHT22;62328;51.19929245;4.42130175;2022-10-30T11:09:32;18.80;99.90
8780;DHT22;62328;51.19929245;4.42130175;2022-10-30T11:11:59;18.70;99.90
8780;DHT22;62328;51.19929245;4.42130175;2022-10-30T11:14:28;18.70;99.90
8780;DHT22;62328;51.19929245;4.42130175;2022-10-30T11:17:04;18.70;99.90
8780;DHT22;62328;51.19929245;4.42130175;2022-10-30T11:19:36;18.80;99.90
8780;DHT22;62328;51.19929245;4.42130175;2022-10-30T11:22:12;18.90;99.90
8780;DHT22;62328;51.19929245;4.42130175;2022-10-30T11:24:44;18.90;99.90
8780;DHT22;62328;51.19929245;4.42130175;2022-10-30T11:27:25;18.80;99.90
8780;DHT22;62328;51.19929245;4.42130175;2022-10-30T11:29:55;18.80;99.90
8780;DHT22;62328;51.19929245;4.42130175;2022-10-30T11:32:26;18.90;99.90
8780;DHT22;62328;51.19929245;4.42130175;2022-10-30T11:35:12;18.90;99.90
8780;DHT22;62328;51.19929245;4.42130175;2022-10-30T11:37:42;18.90;99.90
8780;DHT22;62328;51.19929245;4.42130175;2022-10-30T11:40:16;18.90;99.90
8780;DHT22;62328;51.19929245;4.42130175;2022-10-30T11:42:45;18.90;99.90
8780;DHT22;62328;51.19929245;4.42130175;2022-10-30T11:45:15;18.90;99.90
8780;DHT22;62328;51.19929245;4.42130175;2022-10-30T11:47:42;18.90;99.90
8780;DHT22;62328;51.19929245;4.42130175;2022-10-30T11:50:17;18.90;99.90
8780;DHT22;62328;51.19929245;4.42130175;2022-10-30T11:52:46;18.90;99.90
8780;DHT22;62328;51.19929245;4.42130175;2022-10-30T11:55:17;19.00;99.90
8780;DHT22;62328;51.19929245;4.42130175;2022-10-30T11:57:48;18.90;99.90
8780;DHT22;62328;51.19929245;4.42130175;2022-10-30T12:00:18;18.90;99.90
8780;DHT22;62328;51.19929245;4.42130175;2022-10-30T12:02:47;18.90;99.90
8780;DHT22;62328;51.19929245;4.42130175;2022-10-30T12:05:34;18.90;99.90
8780;DHT22;62328;51.19929245;4.42130175;2022-10-30T12:08:18;18.90;99.90
8780;DHT22;62328;51.19929245;4.42130175;2022-10-30T12:10:47;18.90;99.90
8780;DHT22;62328;51.19929245;4.42130175;2022-10-30T12:13:22;19.20;99.90
8780;DHT22;62328;51.19929245;4.42130175;2022-10-30T12:16:01;18.90;99.90
8780;DHT22;62328;51.19929245;4.42130175;2022-10-30T12:18:29;18.90;99.90
8780;DHT22;62328;51.19929245;4.42130175;2022-10-30T12:20:57;18.90;99.90
8780;DHT22;62328;51.19929245;4.42130175;2022-10-30T12:23:26;19.00;99.90
8780;DHT22;62328;51.19929245;4.42130175;2022-10-30T12:25:55;19.00;99.90
8780;DHT22;62328;51.19929245;4.42130175;2022-10-30T12:28:24;19.00;99.90
8780;DHT22;62328;51.19929245;4.42130175;2022-10-30T12:30:55;19.00;99.90
8780;DHT22;62328;51.19929245;4.42130175;2022-10-30T12:33:26;19.00;99.90
8780;DHT22;62328;51.19929245;4.42130175;2022-10-30T12:35:56;18.90;99.90
8780;DHT22;62328;51.19929245;4.42130175;2022-10-30T12:38:29;18.90;99.90
8780;DHT22;62328;51.19929245;4.42130175;2022-10-30T12:41:04;19.00;99.90
8780;DHT22;62328;51.19929245;4.42130175;2022-10-30T12:43:33;19.00;99.90
8780;DHT22;62328;51.19929245;4.42130175;2022-10-30T12:46:12;19.00;99.90
8780;DHT22;62328;51.19929245;4.42130175;2022-10-30T12:48:45;19.00;99.90
8780;DHT22;62328;51.19929245;4.42130175;2022-10-30T12:51:16;19.10;99.90
8780;DHT22;62328;51.19929245;4.42130175;2022-10-30T12:53:51;19.10;99.90
8780;DHT22;62328;51.19929245;4.42130175;2022-10-30T12:56:27;19.20;99.90
8780;DHT22;62328;51.19929245;4.42130175;2022-10-30T12:59:06;19.30;99.90
8780;DHT22;62328;51.19929245;4.42130175;2022-10-30T13:01:39;19.20;99.90
8780;DHT22;62328;51.19929245;4.42130175;2022-10-30T13:04:11;19.30;99.90
8780;DHT22;62328;51.19929245;4.42130175;2022-10-30T13:06:48;19.30;99.90
8780;DHT22;62328;51.19929245;4.42130175;2022-10-30T13:09:23;19.40;99.90
8780;DHT22;62328;51.19929245;4.42130175;2022-10-30T13:11:54;19.50;99.90
8780;DHT22;62328;51.19929245;4.42130175;2022-10-30T13:14:29;19.50;99.90
8780;DHT22;62328;51.19929245;4.42130175;2022-10-30T13:16:58;19.50;99.90
8780;DHT22;62328;51.19929245;4.42130175;2022-10-30T13:19:25;19.50;99.90
8780;DHT22;62328;51.19929245;4.42130175;2022-10-30T13:22:01;19.60;99.90
8780;DHT22;62328;51.19929245;4.42130175;2022-10-30T13:24:42;19.60;99.90
8780;DHT22;62328;51.19929245;4.42130175;2022-10-30T13:27:14;19.60;99.90
8780;DHT22;62328;51.19929245;4.42130175;2022-10-30T13:29:45;19.60;99.90
8780;DHT22;62328;51.19929245;4.42130175;2022-10-30T13:32:35;19.70;99.90
8780;DHT22;62328;51.19929245;4.42130175;2022-10-30T13:35:15;19.70;99.90
8780;DHT22;62328;51.19929245;4.42130175;2022-10-30T13:37:50;19.70;99.90
8780;DHT22;62328;51.19929245;4.42130175;2022-10-30T13:40:30;19.70;99.90
8780;DHT22;62328;51.19929245;4.42130175;2022-10-30T13:43:08;19.60;99.90
8780;DHT22;62328;51.19929245;4.42130175;2022-10-30T13:46:01;19.60;99.90
8780;DHT22;62328;51.19929245;4.42130175;2022-10-30T13:48:40;19.60;99.90
8780;DHT22;62328;51.19929245;4.42130175;2022-10-30T13:51:26;19.60;99.90
8780;DHT22;62328;51.19929245;4.42130175;2022-10-30T13:54:03;19.50;99.90